sensor_id;sensor_type;location;lat;lon;timestamp;P1;durP1;ratioP1;P2;durP2;ratioP2
57339;SDS011;43174;50.930;18.170;2023-05-10T00:06:19;9.40;;;8.70;;
57339;SDS011;43174;50.930;18.170;2023-05-10T00:16:01;7.90;;;7.40;;
57339;SDS011;43174;50.930;18.170;2023-05-10T00:25:43;5.40;;;5.10;;
57339;SDS011;43174;50.930;18.170;2023-05-10T00:35:24;6.90;;;6.40;;
57339;SDS011;43174;50.930;18.170;2023-05-10T00:45:07;10.70;;;9.80;;
57339;SDS011;43174;50.930;18.170;2023-05-10T01:02:07;10.50;;;8.10;;
57339;SDS011;43174;50.930;18.170;2023-05-10T01:11:51;11.60;;;10.60;;
57339;SDS011;43174;50.930;18.170;2023-05-10T01:21:48;10.50;;;9.80;;
57339;SDS011;43174;50.930;18.170;2023-05-10T01:41:41;9.40;;;7.30;;
57339;SDS011;43174;50.930;18.170;2023-05-10T01:51:23;10.50;;;9.70;;
57339;SDS011;43174;50.930;18.170;2023-05-10T02:01:06;5.20;;;5.00;;
57339;SDS011;43174;50.930;18.170;2023-05-10T02:10:51;6.50;;;6.00;;
57339;SDS011;43174;50.930;18.170;2023-05-10T02:20:33;6.10;;;5.80;;
57339;SDS011;43174;50.930;18.170;2023-05-10T02:30:17;6.80;;;5.00;;
57339;SDS011;43174;50.930;18.170;2023-05-10T02:40:00;7.50;;;6.10;;
57339;SDS011;43174;50.930;18.170;2023-05-10T02:49:47;8.90;;;8.40;;
57339;SDS011;43174;50.930;18.170;2023-05-10T02:59:31;8.30;;;7.80;;
57339;SDS011;43174;50.930;18.170;2023-05-10T03:09:14;12.00;;;7.10;;
57339;SDS011;43174;50.930;18.170;2023-05-10T03:21:31;7.20;;;6.90;;
57339;SDS011;43174;50.930;18.170;2023-05-10T03:31:13;14.20;;;9.00;;
57339;SDS011;43174;50.930;18.170;2023-05-10T03:40:56;7.30;;;6.70;;
57339;SDS011;43174;50.930;18.170;2023-05-10T03:57:59;10.00;;;6.10;;
57339;SDS011;43174;50.930;18.170;2023-05-10T04:07:41;20.80;;;5.50;;
57339;SDS011;43174;50.930;18.170;2023-05-10T04:17:23;7.40;;;7.00;;
57339;SDS011;43174;50.930;18.170;2023-05-10T04:27:06;9.30;;;8.80;;
57339;SDS011;43174;50.930;18.170;2023-05-10T04:36:48;5.80;;;5.40;;
57339;SDS011;43174;50.930;18.170;2023-05-10T04:46:31;7.90;;;7.10;;
57339;SDS011;43174;50.930;18.170;2023-05-10T04:56:14;6.90;;;6.50;;
57339;SDS011;43174;50.930;18.170;2023-05-10T05:05:56;6.20;;;5.50;;
57339;SDS011;43174;50.930;18.170;2023-05-10T05:15:41;7.80;;;7.30;;
57339;SDS011;43174;50.930;18.170;2023-05-10T05:25:24;33.50;;;6.20;;
57339;SDS011;43174;50.930;18.170;2023-05-10T05:35:07;6.90;;;6.60;;
57339;SDS011;43174;50.930;18.170;2023-05-10T05:44:51;7.10;;;6.60;;
57339;SDS011;43174;50.930;18.170;2023-05-10T05:54:36;6.10;;;5.70;;
57339;SDS011;43174;50.930;18.170;2023-05-10T06:04:18;7.10;;;6.70;;
57339;SDS011;43174;50.930;18.170;2023-05-10T06:14:00;4.30;;;4.10;;
57339;SDS011;43174;50.930;18.170;2023-05-10T06:23:42;3.60;;;3.40;;
57339;SDS011;43174;50.930;18.170;2023-05-10T06:33:25;3.70;;;3.40;;
57339;SDS011;43174;50.930;18.170;2023-05-10T06:43:07;2.30;;;2.20;;
57339;SDS011;43174;50.930;18.170;2023-05-10T06:52:48;2.70;;;2.60;;
57339;SDS011;43174;50.930;18.170;2023-05-10T07:02:30;4.10;;;3.80;;
57339;SDS011;43174;50.930;18.170;2023-05-10T07:12:15;0.80;;;0.80;;
57339;SDS011;43174;50.930;18.170;2023-05-10T07:21:58;2.40;;;2.30;;
57339;SDS011;43174;50.930;18.170;2023-05-10T07:31:41;4.80;;;3.30;;
57339;SDS011;43174;50.930;18.170;2023-05-10T07:41:26;2.20;;;2.10;;
57339;SDS011;43174;50.930;18.170;2023-05-10T07:46:18;6.00;;;2.70;;
57339;SDS011;43174;50.930;18.170;2023-05-10T08:06:02;12.00;;;1.80;;
57339;SDS011;43174;50.930;18.170;2023-05-10T08:15:45;2.30;;;2.20;;
57339;SDS011;43174;50.930;18.170;2023-05-10T08:25:28;1.70;;;1.60;;
57339;SDS011;43174;50.930;18.170;2023-05-10T08:35:10;1.60;;;1.50;;
57339;SDS011;43174;50.930;18.170;2023-05-10T08:44:53;1.30;;;1.20;;
57339;SDS011;43174;50.930;18.170;2023-05-10T08:54:38;2.70;;;1.50;;
57339;SDS011;43174;50.930;18.170;2023-05-10T09:04:20;3.00;;;1.90;;
57339;SDS011;43174;50.930;18.170;2023-05-10T09:14:02;17.20;;;2.20;;
57339;SDS011;43174;50.930;18.170;2023-05-10T09:23:45;2.20;;;2.10;;
57339;SDS011;43174;50.930;18.170;2023-05-10T09:33:28;1.30;;;1.10;;
57339;SDS011;43174;50.930;18.170;2023-05-10T09:43:10;4.10;;;1.10;;
57339;SDS011;43174;50.930;18.170;2023-05-10T09:52:54;2.70;;;2.60;;
57339;SDS011;43174;50.930;18.170;2023-05-10T10:02:36;1.60;;;1.50;;
57339;SDS011;43174;50.930;18.170;2023-05-10T10:12:19;3.60;;;2.60;;
57339;SDS011;43174;50.930;18.170;2023-05-10T10:22:01;3.00;;;1.30;;
57339;SDS011;43174;50.930;18.170;2023-05-10T10:31:48;5.90;;;1.30;;
57339;SDS011;43174;50.930;18.170;2023-05-10T10:41:35;1.80;;;1.70;;
57339;SDS011;43174;50.930;18.170;2023-05-10T10:51:18;25.70;;;2.40;;
57339;SDS011;43174;50.930;18.170;2023-05-10T11:01:11;2.00;;;1.90;;
57339;SDS011;43174;50.930;18.170;2023-05-10T11:11:02;1.90;;;1.80;;
57339;SDS011;43174;50.930;18.170;2023-05-10T11:20:51;1.00;;;0.80;;
57339;SDS011;43174;50.930;18.170;2023-05-10T11:30:36;6.90;;;2.20;;
57339;SDS011;43174;50.930;18.170;2023-05-10T11:40:18;3.80;;;2.30;;
57339;SDS011;43174;50.930;18.170;2023-05-10T11:50:02;1.90;;;1.80;;
57339;SDS011;43174;50.930;18.170;2023-05-10T11:59:52;1.50;;;1.40;;
57339;SDS011;43174;50.930;18.170;2023-05-10T12:09:35;2.20;;;1.50;;
57339;SDS011;43174;50.930;18.170;2023-05-10T12:19:19;2.80;;;0.90;;
57339;SDS011;43174;50.930;18.170;2023-05-10T12:29:15;1.30;;;1.20;;
57339;SDS011;43174;50.930;18.170;2023-05-10T12:39:04;1.90;;;1.30;;
57339;SDS011;43174;50.930;18.170;2023-05-10T12:48:50;1.70;;;1.60;;
57339;SDS011;43174;50.930;18.170;2023-05-10T12:58:39;11.10;;;1.50;;
57339;SDS011;43174;50.930;18.170;2023-05-10T13:08:23;1.80;;;1.70;;
57339;SDS011;43174;50.930;18.170;2023-05-10T13:18:05;3.20;;;0.70;;
57339;SDS011;43174;50.930;18.170;2023-05-10T13:27:48;1.10;;;1.00;;
57339;SDS011;43174;50.930;18.170;2023-05-10T13:37:30;1.90;;;1.30;;
57339;SDS011;43174;50.930;18.170;2023-05-10T13:47:13;6.60;;;1.50;;
57339;SDS011;43174;50.930;18.170;2023-05-10T13:56:57;8.40;;;1.40;;
57339;SDS011;43174;50.930;18.170;2023-05-10T14:06:41;1.80;;;1.70;;
57339;SDS011;43174;50.930;18.170;2023-05-10T14:16:24;1.40;;;1.30;;
57339;SDS011;43174;50.930;18.170;2023-05-10T14:26:06;1.50;;;0.80;;
57339;SDS011;43174;50.930;18.170;2023-05-10T14:35:50;2.90;;;1.70;;
57339;SDS011;43174;50.930;18.170;2023-05-10T14:45:33;1.30;;;1.30;;
57339;SDS011;43174;50.930;18.170;2023-05-10T14:55:16;1.70;;;1.60;;
57339;SDS011;43174;50.930;18.170;2023-05-10T15:05:01;2.00;;;1.90;;
57339;SDS011;43174;50.930;18.170;2023-05-10T15:14:45;2.10;;;2.00;;
57339;SDS011;43174;50.930;18.170;2023-05-10T15:24:28;0.70;;;0.60;;
57339;SDS011;43174;50.930;18.170;2023-05-10T15:34:12;3.30;;;1.40;;
57339;SDS011;43174;50.930;18.170;2023-05-10T15:43:55;1.20;;;1.10;;
57339;SDS011;43174;50.930;18.170;2023-05-10T15:53:39;10.90;;;2.90;;
57339;SDS011;43174;50.930;18.170;2023-05-10T16:03:22;3.70;;;3.40;;
57339;SDS011;43174;50.930;18.170;2023-05-10T16:13:04;4.80;;;2.00;;
57339;SDS011;43174;50.930;18.170;2023-05-10T16:22:47;0.80;;;0.80;;
57339;SDS011;43174;50.930;18.170;2023-05-10T16:32:29;2.80;;;2.30;;
57339;SDS011;43174;50.930;18.170;2023-05-10T16:42:11;3.80;;;3.50;;
57339;SDS011;43174;50.930;18.170;2023-05-10T16:51:53;4.00;;;3.80;;
57339;SDS011;43174;50.930;18.170;2023-05-10T17:01:37;3.80;;;3.50;;
57339;SDS011;43174;50.930;18.170;2023-05-10T17:11:19;5.40;;;5.00;;
57339;SDS011;43174;50.930;18.170;2023-05-10T17:21:02;4.00;;;3.60;;
57339;SDS011;43174;50.930;18.170;2023-05-10T17:30:46;3.60;;;3.40;;
57339;SDS011;43174;50.930;18.170;2023-05-10T17:40:28;19.10;;;6.20;;
57339;SDS011;43174;50.930;18.170;2023-05-10T17:50:11;22.80;;;8.70;;
57339;SDS011;43174;50.930;18.170;2023-05-10T17:59:53;7.90;;;5.70;;
57339;SDS011;43174;50.930;18.170;2023-05-10T18:09:39;5.30;;;4.80;;
57339;SDS011;43174;50.930;18.170;2023-05-10T18:19:21;7.60;;;7.10;;
57339;SDS011;43174;50.930;18.170;2023-05-10T18:29:05;15.00;;;5.30;;
57339;SDS011;43174;50.930;18.170;2023-05-10T18:38:48;16.00;;;6.00;;
57339;SDS011;43174;50.930;18.170;2023-05-10T18:48:32;10.90;;;8.50;;
57339;SDS011;43174;50.930;18.170;2023-05-10T18:58:15;6.50;;;5.50;;
57339;SDS011;43174;50.930;18.170;2023-05-10T19:07:58;8.70;;;8.10;;
57339;SDS011;43174;50.930;18.170;2023-05-10T19:17:41;6.40;;;6.00;;
57339;SDS011;43174;50.930;18.170;2023-05-10T19:27:23;8.80;;;7.80;;
57339;SDS011;43174;50.930;18.170;2023-05-10T19:37:08;8.20;;;7.60;;
57339;SDS011;43174;50.930;18.170;2023-05-10T19:46:50;8.30;;;7.70;;
57339;SDS011;43174;50.930;18.170;2023-05-10T19:56:34;7.40;;;6.80;;
57339;SDS011;43174;50.930;18.170;2023-05-10T20:06:18;6.20;;;5.70;;
57339;SDS011;43174;50.930;18.170;2023-05-10T20:16:01;7.80;;;7.20;;
57339;SDS011;43174;50.930;18.170;2023-05-10T20:25:44;9.00;;;8.40;;
57339;SDS011;43174;50.930;18.170;2023-05-10T20:35:28;4.00;;;3.80;;
57339;SDS011;43174;50.930;18.170;2023-05-10T20:45:11;26.50;;;15.80;;
57339;SDS011;43174;50.930;18.170;2023-05-10T20:54:54;9.40;;;8.80;;
57339;SDS011;43174;50.930;18.170;2023-05-10T21:04:37;5.80;;;5.40;;
57339;SDS011;43174;50.930;18.170;2023-05-10T21:14:19;6.60;;;5.90;;
57339;SDS011;43174;50.930;18.170;2023-05-10T21:24:02;15.60;;;5.60;;
57339;SDS011;43174;50.930;18.170;2023-05-10T21:33:44;16.20;;;7.90;;
57339;SDS011;43174;50.930;18.170;2023-05-10T21:43:27;4.60;;;4.20;;
57339;SDS011;43174;50.930;18.170;2023-05-10T21:53:10;6.30;;;5.80;;
57339;SDS011;43174;50.930;18.170;2023-05-10T22:02:52;8.90;;;8.00;;
57339;SDS011;43174;50.930;18.170;2023-05-10T22:12:34;4.70;;;4.30;;
57339;SDS011;43174;50.930;18.170;2023-05-10T22:22:16;3.60;;;3.40;;
57339;SDS011;43174;50.930;18.170;2023-05-10T22:31:58;5.70;;;5.20;;
57339;SDS011;43174;50.930;18.170;2023-05-10T22:41:46;12.90;;;6.70;;
57339;SDS011;43174;50.930;18.170;2023-05-10T22:51:28;6.80;;;6.20;;
57339;SDS011;43174;50.930;18.170;2023-05-10T23:01:11;7.10;;;6.70;;
57339;SDS011;43174;50.930;18.170;2023-05-10T23:10:53;3.80;;;3.50;;
57339;SDS011;43174;50.930;18.170;2023-05-10T23:20:39;7.50;;;6.90;;
57339;SDS011;43174;50.930;18.170;2023-05-10T23:30:22;6.80;;;6.40;;
57339;SDS011;43174;50.930;18.170;2023-05-10T23:40:05;6.70;;;5.60;;
57339;SDS011;43174;50.930;18.170;2023-05-10T23:49:48;6.90;;;6.60;;
57339;SDS011;43174;50.930;18.170;2023-05-10T23:59:30;8.40;;;7.90;;
